St. Margarethen - Festspielgelnde
Wetterdaten: aktuell Mittwoch, 01.04.2020 00:04
Datum Zeit Temp. A. Feuchte A. Regen Wind Richtung Richtung Taupunkt Windchill Windben
01.04.2020 00:04 -0,7 C 82 % 0,0 l/m 4,6 km/h (1 Bft) W 271 -3,4 C -0,7 C 6,4 km/h (2 Bft)
31.03.2020 23:04 -0,3 C 79 % 0,0 l/m 3,4 km/h (1 Bft) W-SW 238 -3,5 C -0,3 C 4,8 km/h (1 Bft)
31.03.2020 22:04 0,7 C 76 % 0,0 l/m 2,8 km/h (1 Bft) N-NW 346 -3,0 C 0,7 C 4,8 km/h (1 Bft)
31.03.2020 21:02 1,2 C 76 % 0,0 l/m 5,7 km/h (1 Bft) W-NW 302 -2,5 C 1,2 C 8,0 km/h (2 Bft)
31.03.2020 20:01 1,6 C 74 % 0,0 l/m 4,6 km/h (1 Bft) W-NW 295 -2,5 C 1,6 C 9,7 km/h (2 Bft)
31.03.2020 19:01 2,3 C 68 % 0,0 l/m 7,9 km/h (2 Bft) W-NW 285 -3,0 C 0,9 C 9,7 km/h (2 Bft)
31.03.2020 17:59 5,4 C 49 % 0,0 l/m 14,8 km/h (3 Bft) N 358 -4,4 C -0,3 C 24,1 km/h (4 Bft)
31.03.2020 16:58 5,6 C 39 % 0,0 l/m 11,6 km/h (2 Bft) W-NW 300 -7,2 C 1,7 C 14,5 km/h (3 Bft)
31.03.2020 15:57 5,7 C 37 % 0,0 l/m 6,8 km/h (2 Bft) O-NO 67 -7,8 C 5,4 C 9,7 km/h (2 Bft)
31.03.2020 14:57 5,8 C 37 % 0,0 l/m 7,8 km/h (2 Bft) O-NO 58 -7,7 C 4,6 C 11,3 km/h (2 Bft)
31.03.2020 13:56 5,8 C 38 % 0,0 l/m 9,3 km/h (2 Bft) O-NO 72 -7,4 C 3,4 C 12,9 km/h (3 Bft)
31.03.2020 12:55 5,7 C 38 % 0,0 l/m 12,3 km/h (3 Bft) O-NO 73 -7,5 C 1,4 C 17,7 km/h (3 Bft)
31.03.2020 11:55 4,7 C 38 % 0,0 l/m 1,9 km/h (1 Bft) N-NO 13 -8,4 C 4,7 C 3,2 km/h (1 Bft)
31.03.2020 10:54 4,1 C 40 % 0,0 l/m 14,2 km/h (3 Bft) O 96 -8,3 C -1,6 C 17,7 km/h (3 Bft)
31.03.2020 09:54 3,7 C 41 % 0,0 l/m 5,7 km/h (1 Bft) O-NO 61 -8,3 C 3,7 C 8,0 km/h (2 Bft)
31.03.2020 08:54 0,4 C 56 % 0,0 l/m 1,9 km/h (1 Bft) S-SW 207 -7,3 C 0,4 C 3,2 km/h (1 Bft)
31.03.2020 07:54 -2,3 C 62 % 0,0 l/m 3,3 km/h (1 Bft) W-SW 243 -8,6 C -2,3 C 4,8 km/h (1 Bft)
31.03.2020 06:54 -3,4 C 64 % 0,0 l/m 6,4 km/h (2 Bft) SW 224 -9,2 C -3,3 C 6,4 km/h (2 Bft)
31.03.2020 05:54 -3,5 C 64 % 0,0 l/m 4,4 km/h (1 Bft) W-SW 242 -9,3 C -3,5 C 6,4 km/h (2 Bft)
31.03.2020 04:53 -3,2 C 63 % 0,0 l/m 5,5 km/h (1 Bft) SW 235 -9,2 C -3,2 C 6,4 km/h (2 Bft)
31.03.2020 03:53 -2,9 C 62 % 0,0 l/m 2,4 km/h (1 Bft) W-SW 242 -9,1 C -2,9 C 3,2 km/h (1 Bft)
31.03.2020 02:51 -2,4 C 59 % 0,0 l/m 5,8 km/h (2 Bft) SW 228 -9,3 C -2,4 C 8,0 km/h (2 Bft)
31.03.2020 01:51 -2,5 C 60 % 0,0 l/m 5,6 km/h (1 Bft) W-SW 240 -9,2 C -2,5 C 6,4 km/h (2 Bft)
31.03.2020 01:00 -1,8 C 57 % 0,0 l/m 4,0 km/h (1 Bft) SW 225 -9,2 C -1,8 C 4,8 km/h (1 Bft)
_ Min-Zeit 05:56 15:19 - 09:22 - - 04:44 18:35 09:22
Minimum _ -3,6 C 33 % - 0,0 km/h (0 Bft) - - -9,4 C -6,2 C 0,0 km/h (0 Bft)
_ Max-Zeit 14:31 23:27 01:00 17:10 - - 19:34 14:30 18:35
Maximum _ 7,2 C 82 % 0,0 l/m 22,4 km/h
W-NW (4 Bft)
- - -2,4 C 7,1 C 33,8 km/h
N (5 Bft)
Durchschnitt _ 1,3 C 56 % #0,0 l/m 5,6 km/h (1 Bft) SW - -6,9 C 0,5 C 8,1 km/h (2 Bft)